AZU2896 SBFL-SBCF
Flight info
| Callsign | AZU2896 |
|---|---|
| Flight time | N/A |
| Altitude | 37000 |
| Route | UBROS UM540 ANISE UZ23 KIBAP |
| Aircraft | A20N/M-SDE2E3FGHIJ1RWXY/LB1 |
Departure
| Time | 2026-04-21 19:52 |
|---|---|
| Airport | Hercílio Luz International Airport (SBFL) |
Arrival
| Time | N/A |
|---|---|
| Airport | Tancredo Neves International Airport (SBCF) |
| Time | Latitude | Longitude | Altitude | Speed | Heading |
|---|---|---|---|---|---|
| 2026-04-21 19:22 | -27.67289 | -48.54544 | 24 ft | 0 kts | 213° |
| 2026-04-21 19:40 | -27.67282 | -48.54540 | 24 ft | 2 kts | 210° |
| 2026-04-21 19:41 | -27.67268 | -48.54530 | 28 ft | 2 kts | 209° |
| 2026-04-21 19:41 | -27.67253 | -48.54522 | 27 ft | 2 kts | 193° |
| 2026-04-21 19:41 | -27.67238 | -48.54525 | 27 ft | 2 kts | 126° |
| 2026-04-21 19:41 | -27.67235 | -48.54530 | 26 ft | 0 kts | 122° |
| 2026-04-21 19:45 | -27.67242 | -48.54517 | 29 ft | 4 kts | 122° |
| 2026-04-21 19:45 | -27.67262 | -48.54481 | 25 ft | 7 kts | 121° |
| 2026-04-21 19:45 | -27.67289 | -48.54428 | 25 ft | 10 kts | 120° |
| 2026-04-21 19:46 | -27.67272 | -48.54362 | 24 ft | 11 kts | 30° |
| 2026-04-21 19:46 | -27.67211 | -48.54314 | 27 ft | 9 kts | 70° |
| 2026-04-21 19:46 | -27.67235 | -48.54248 | 27 ft | 10 kts | 122° |
| 2026-04-21 19:46 | -27.67277 | -48.54170 | 24 ft | 13 kts | 121° |
| 2026-04-21 19:47 | -27.67328 | -48.54075 | 27 ft | 15 kts | 120° |
| 2026-04-21 19:47 | -27.67387 | -48.53966 | 24 ft | 17 kts | 120° |
| 2026-04-21 19:47 | -27.67452 | -48.53845 | 26 ft | 19 kts | 122° |
| 2026-04-21 19:47 | -27.67527 | -48.53705 | 25 ft | 22 kts | 121° |
| 2026-04-21 19:48 | -27.67614 | -48.53544 | 27 ft | 26 kts | 123° |
| 2026-04-21 19:48 | -27.67704 | -48.53379 | 24 ft | 26 kts | 121° |
| 2026-04-21 19:48 | -27.67759 | -48.53266 | 26 ft | 21 kts | 110° |
| 2026-04-21 19:48 | -27.67710 | -48.53189 | 25 ft | 0 kts | 33° |
| 2026-04-21 19:49 | -27.67709 | -48.53188 | 25 ft | 2 kts | 33° |
| 2026-04-21 19:49 | -27.67668 | -48.53157 | 25 ft | 12 kts | 33° |
| 2026-04-21 19:50 | -27.67625 | -48.53153 | 25 ft | 4 kts | 304° |
| 2026-04-21 19:50 | -27.67618 | -48.53174 | 27 ft | 0 kts | 302° |
| 2026-04-21 19:51 | -27.67596 | -48.53214 | 25 ft | 32 kts | 301° |
| 2026-04-21 19:51 | -27.67325 | -48.53717 | 22 ft | 114 kts | 301° |
| 2026-04-21 19:51 | -27.66829 | -48.54652 | 239 ft | 151 kts | 303° |
| 2026-04-21 19:52 | -27.66292 | -48.55633 | 1066 ft | 145 kts | 306° |
| 2026-04-21 19:52 | -27.65712 | -48.56609 | 1674 ft | 155 kts | 307° |
| 2026-04-21 19:52 | -27.65052 | -48.57654 | 2184 ft | 170 kts | 308° |
| 2026-04-21 19:52 | -27.64293 | -48.58707 | 2703 ft | 182 kts | 320° |
| 2026-04-21 19:53 | -27.63083 | -48.59262 | 3113 ft | 199 kts | 356° |
| 2026-04-21 19:53 | -27.61706 | -48.58880 | 3642 ft | 209 kts | 26° |
| 2026-04-21 19:53 | -27.60430 | -48.57966 | 4227 ft | 224 kts | 34° |
| 2026-04-21 19:53 | -27.59116 | -48.56898 | 4735 ft | 243 kts | 34° |
| 2026-04-21 19:54 | -27.57686 | -48.55797 | 5359 ft | 254 kts | 32° |
| 2026-04-21 19:54 | -27.56167 | -48.54711 | 5834 ft | 264 kts | 31° |
| 2026-04-21 19:54 | -27.54596 | -48.53643 | 5975 ft | 262 kts | 30° |
| 2026-04-21 19:54 | -27.52930 | -48.52822 | 5994 ft | 263 kts | 9° |
| 2026-04-21 19:55 | -27.51090 | -48.52780 | 6206 ft | 274 kts | 359° |
| 2026-04-21 19:55 | -27.49225 | -48.52329 | 7010 ft | 276 kts | 26° |
| 2026-04-21 19:55 | -27.47616 | -48.51097 | 7796 ft | 284 kts | 38° |
| 2026-04-21 19:55 | -27.46073 | -48.49657 | 8538 ft | 291 kts | 38° |
| 2026-04-21 19:56 | -27.44472 | -48.48272 | 9335 ft | 295 kts | 34° |
| 2026-04-21 19:56 | -27.42764 | -48.46957 | 10113 ft | 300 kts | 31° |
| 2026-04-21 19:56 | -27.40942 | -48.45666 | 10577 ft | 317 kts | 30° |
| 2026-04-21 19:56 | -27.39663 | -48.44798 | 10722 ft | 332 kts | 29° |
| 2026-04-21 19:57 | -27.37613 | -48.43432 | 11048 ft | 349 kts | 29° |
| 2026-04-21 19:57 | -27.34820 | -48.41580 | 12038 ft | 353 kts | 29° |
| 2026-04-21 19:57 | -27.32698 | -48.40170 | 12790 ft | 356 kts | 28° |
| 2026-04-21 19:57 | -27.30551 | -48.38742 | 13534 ft | 360 kts | 28° |
| 2026-04-21 19:58 | -27.28382 | -48.37299 | 14216 ft | 363 kts | 28° |
| 2026-04-21 19:58 | -27.26933 | -48.36335 | 14620 ft | 366 kts | 28° |
| 2026-04-21 19:58 | -27.24723 | -48.34866 | 15224 ft | 371 kts | 28° |
| 2026-04-21 19:58 | -27.22476 | -48.33372 | 15831 ft | 376 kts | 28° |
| 2026-04-21 19:59 | -27.20209 | -48.31865 | 16428 ft | 380 kts | 28° |
| 2026-04-21 19:59 | -27.17945 | -48.30362 | 17009 ft | 385 kts | 28° |
| 2026-04-21 19:59 | -27.15627 | -48.28822 | 17587 ft | 389 kts | 28° |
| 2026-04-21 19:59 | -27.13269 | -48.27258 | 18168 ft | 394 kts | 28° |
| 2026-04-21 20:00 | -27.10887 | -48.25678 | 18689 ft | 398 kts | 28° |
| 2026-04-21 20:00 | -27.08487 | -48.24087 | 19200 ft | 402 kts | 28° |
| 2026-04-21 20:00 | -27.06100 | -48.22505 | 19718 ft | 405 kts | 28° |
| 2026-04-21 20:00 | -27.03660 | -48.20889 | 20205 ft | 409 kts | 27° |
| 2026-04-21 20:01 | -27.01193 | -48.19256 | 20709 ft | 412 kts | 27° |
| 2026-04-21 20:01 | -26.98712 | -48.17614 | 21200 ft | 416 kts | 27° |
| 2026-04-21 20:01 | -26.96204 | -48.15956 | 21689 ft | 419 kts | 27° |
| 2026-04-21 20:01 | -26.93672 | -48.14283 | 22174 ft | 423 kts | 27° |
| 2026-04-21 20:02 | -26.91156 | -48.12620 | 22638 ft | 426 kts | 27° |
| 2026-04-21 20:02 | -26.88575 | -48.10916 | 23108 ft | 430 kts | 27° |
| 2026-04-21 20:02 | -26.85979 | -48.09203 | 23577 ft | 433 kts | 27° |
| 2026-04-21 20:02 | -26.83374 | -48.07485 | 23967 ft | 436 kts | 27° |
| 2026-04-21 20:03 | -26.80778 | -48.05774 | 24339 ft | 440 kts | 27° |
| 2026-04-21 20:03 | -26.78125 | -48.04026 | 24707 ft | 443 kts | 27° |
| 2026-04-21 20:03 | -26.75455 | -48.02268 | 25079 ft | 446 kts | 27° |
| 2026-04-21 20:03 | -26.72765 | -48.00497 | 25439 ft | 449 kts | 27° |